KLWV/LWV METAR and TAF weather

Enter ICAO airport designator
Station Type Date Time Source
KLWV METAR 2018/12/10 13:07 UTC NOAA

KLWV 101307Z AUTO 33004KT 2 1/2SM BR CLR M07/M09 A3031 RMK AO2 T10721094


Station Type Date Time Source
KLWV Decoded METAR 2018/12/10 13:07 UTC NOAA

LAWRENCEVILLE-VINCENNES INTERNATIONAL , IL, United States (KLWV) 38-46N 87-36W 131M
Dec 10, 2018 - 08:07 AM EST / 2018.12.10 1307 UTC
Wind: from the NNW (330 degrees) at 5 MPH (4 KT):0
Visibility: 2 1/2 mile(s):0
Sky conditions: clear
Weather: mist
Temperature: 19.0 F (-7.2 C)
Windchill: 12 F (-11 C):1
Dew Point: 15.1 F (-9.4 C)
Relative Humidity: 84%
Pressure (altimeter): 30.31 in. Hg (1026 hPa)
ob: KLWV 101307Z AUTO 33004KT 2 1/2SM BR CLR M07/M09 A3031 RMK AO2 T10721094
cycle: 13

Station Type Date Time Source
KLWV TAF UTC NOAA

Error!


Example: see airport list